Time;durP1;ratioP1;P1;durP2;ratioP2;P2;SDS_P1;SDS_P2;PMS_P1;PMS_P2;Temp;Humidity;BMP_temperature;BMP_pressure;BME280_temperature;BME280_humidity;BME280_pressure;Samples;Min_cycle;Max_cycle;Signal;HPM_P1;HPM_P2
2023/04/10 00:00:34;;;;;;;8.05;5.40;;;;;;;;;;5032098;28;20071;-68
2023/04/10 00:03:01;;;;;;;8.80;5.80;;;;;;;;;;5031490;28;20045;-68
2023/04/10 00:05:28;;;;;;;8.48;5.35;;;;;;;;;;5032084;28;20085;-68
2023/04/10 00:07:54;;;;;;;9.20;5.72;;;;;;;;;;5031323;28;20045;-67
2023/04/10 00:10:25;;;;;;;10.27;5.63;;;;;;;;;;5031662;28;20459;-68
2023/04/10 00:12:52;;;;;;;9.52;5.78;;;;;;;;;;5031355;28;20045;-69
2023/04/10 00:15:19;;;;;;;8.88;5.57;;;;;;;;;;5031680;28;20041;-68
2023/04/10 00:17:46;;;;;;;10.40;5.35;;;;;;;;;;5031404;28;20041;-68
2023/04/10 00:20:13;;;;;;;8.05;5.45;;;;;;;;;;5031684;28;20041;-68
2023/04/10 00:22:40;;;;;;;8.13;5.18;;;;;;;;;;5031483;28;20045;-69
2023/04/10 00:25:07;;;;;;;8.68;5.03;;;;;;;;;;5032027;28;20111;-68
2023/04/10 00:27:35;;;;;;;8.15;5.30;;;;;;;;;;5031168;28;20060;-68
2023/04/10 00:30:02;;;;;;;7.30;5.13;;;;;;;;;;5031511;28;20053;-68
2023/04/10 00:32:29;;;;;;;8.02;5.05;;;;;;;;;;5031434;28;20045;-68
2023/04/10 00:34:55;;;;;;;10.68;5.72;;;;;;;;;;5030864;28;20045;-69
2023/04/10 00:37:22;;;;;;;8.23;5.05;;;;;;;;;;5030659;28;20050;-69
2023/04/10 00:39:48;;;;;;;10.38;6.05;;;;;;;;;;5031247;28;20041;-68
2023/04/10 00:42:15;;;;;;;9.30;6.03;;;;;;;;;;5031155;28;20049;-68
2023/04/10 00:44:43;;;;;;;9.82;6.03;;;;;;;;;;5030685;28;20138;-68
2023/04/10 00:47:10;;;;;;;10.15;6.28;;;;;;;;;;5030685;28;20148;-68
2023/04/10 00:49:36;;;;;;;11.40;6.75;;;;;;;;;;5030907;28;20067;-68
2023/04/10 00:52:03;;;;;;;13.15;7.20;;;;;;;;;;5030190;28;20137;-68
2023/04/10 00:54:31;;;;;;;10.80;6.65;;;;;;;;;;5030611;28;20495;-68
2023/04/10 00:56:58;;;;;;;12.30;7.07;;;;;;;;;;5030890;28;20048;-69
2023/04/10 00:59:25;;;;;;;10.38;6.82;;;;;;;;;;5030936;28;20053;-67
2023/04/10 01:01:53;;;;;;;10.60;6.47;;;;;;;;;;5031069;28;20337;-68
2023/04/10 01:04:20;;;;;;;11.27;6.90;;;;;;;;;;5030604;28;20046;-69
2023/04/10 01:06:58;;;;;;;10.15;6.43;;;;;;;;;;5030899;28;20402;-68
2023/04/10 01:09:35;;;;;;;9.32;5.63;;;;;;;;;;5030480;28;20045;-68
2023/04/10 01:12:15;;;;;;;7.60;5.18;;;;;;;;;;5030721;28;20119;-68
2023/04/10 01:14:49;;;;;;;8.68;5.15;;;;;;;;;;5030531;28;20475;-68
2023/04/10 01:17:22;;;;;;;8.30;4.63;;;;;;;;;;5030787;28;20476;-69
2023/04/10 01:20:01;;;;;;;10.50;5.70;;;;;;;;;;5030390;28;20449;-68
2023/04/10 01:22:35;;;;;;;8.80;5.28;;;;;;;;;;5030642;28;20136;-69
2023/04/10 01:25:17;;;;;;;8.40;5.60;;;;;;;;;;5030056;28;20461;-68
2023/04/10 01:27:52;;;;;;;7.40;5.10;;;;;;;;;;5030622;28;20056;-69
2023/04/10 01:30:23;;;;;;;11.30;5.53;;;;;;;;;;5030587;28;20630;-68
2023/04/10 01:32:51;;;;;;;8.07;5.15;;;;;;;;;;5030626;28;20050;-69
2023/04/10 01:35:18;;;;;;;7.45;4.88;;;;;;;;;;5030287;28;20057;-68
2023/04/10 01:37:50;;;;;;;8.90;5.95;;;;;;;;;;5030067;28;20438;-68
2023/04/10 01:40:20;;;;;;;8.43;5.17;;;;;;;;;;5030049;28;20502;-68
2023/04/10 01:42:51;;;;;;;8.90;5.18;;;;;;;;;;5030337;28;20483;-68
2023/04/10 01:45:23;;;;;;;10.35;5.50;;;;;;;;;;5030010;28;20507;-68
2023/04/10 01:47:50;;;;;;;10.38;6.20;;;;;;;;;;5030201;28;20487;-68
2023/04/10 01:50:17;;;;;;;10.98;6.22;;;;;;;;;;5030096;28;20046;-68
2023/04/10 01:52:45;;;;;;;10.93;6.22;;;;;;;;;;5029921;28;20056;-68
2023/04/10 01:55:12;;;;;;;8.38;5.60;;;;;;;;;;5030067;28;20060;-68
2023/04/10 01:57:38;;;;;;;8.45;5.57;;;;;;;;;;5030494;28;20041;-68
2023/04/10 02:00:06;;;;;;;7.03;4.60;;;;;;;;;;5030022;28;20056;-67
2023/04/10 02:02:34;;;;;;;8.00;5.05;;;;;;;;;;5030197;28;20046;-69
2023/04/10 02:05:01;;;;;;;7.97;5.45;;;;;;;;;;5032534;28;20053;-68
2023/04/10 02:07:35;;;;;;;7.95;5.00;;;;;;;;;;5034212;28;20045;-68
2023/04/10 02:10:08;;;;;;;9.35;5.60;;;;;;;;;;5034011;28;20045;-67
2023/04/10 02:12:39;;;;;;;8.48;5.85;;;;;;;;;;5034405;28;20060;-68
2023/04/10 02:15:08;;;;;;;8.25;5.15;;;;;;;;;;5033974;28;20461;-68
2023/04/10 02:17:37;;;;;;;10.85;6.63;;;;;;;;;;5033503;28;20119;-69
2023/04/10 02:20:06;;;;;;;12.05;6.50;;;;;;;;;;5034196;28;20084;-69
2023/04/10 02:22:34;;;;;;;10.30;5.82;;;;;;;;;;5033707;28;20461;-68
2023/04/10 02:25:00;;;;;;;10.60;6.30;;;;;;;;;;5033603;28;20084;-68
2023/04/10 02:27:28;;;;;;;9.50;6.05;;;;;;;;;;5033270;28;20049;-69
2023/04/10 02:29:55;;;;;;;9.80;6.28;;;;;;;;;;5033853;28;20111;-68
2023/04/10 02:32:22;;;;;;;9.27;5.80;;;;;;;;;;5033202;28;20042;-69
2023/04/10 02:34:50;;;;;;;12.38;6.45;;;;;;;;;;5033456;28;20064;-68
2023/04/10 02:37:16;;;;;;;10.00;6.22;;;;;;;;;;5033540;28;20049;-69
2023/04/10 02:39:43;;;;;;;10.45;6.20;;;;;;;;;;5033723;28;20048;-68
2023/04/10 02:42:10;;;;;;;10.25;6.50;;;;;;;;;;5033407;28;20053;-68
2023/04/10 02:44:38;;;;;;;9.32;5.78;;;;;;;;;;5033267;28;20045;-68
2023/04/10 02:47:04;;;;;;;10.25;6.35;;;;;;;;;;5033442;28;20045;-68
2023/04/10 02:49:33;;;;;;;10.35;6.25;;;;;;;;;;5033162;28;20054;-67
2023/04/10 02:52:01;;;;;;;12.05;6.40;;;;;;;;;;5032952;28;20053;-69
2023/04/10 02:54:28;;;;;;;10.10;6.70;;;;;;;;;;5033396;28;20093;-68
2023/04/10 02:56:56;;;;;;;11.80;6.47;;;;;;;;;;5032606;28;20046;-68
2023/04/10 02:59:22;;;;;;;9.38;5.85;;;;;;;;;;5032856;28;20248;-68
2023/04/10 03:01:50;;;;;;;10.23;5.93;;;;;;;;;;5032975;28;20053;-68
2023/04/10 03:04:17;;;;;;;11.80;6.22;;;;;;;;;;5033060;28;20068;-68
2023/04/10 03:06:44;;;;;;;9.77;5.78;;;;;;;;;;5032668;28;20049;-68
2023/04/10 03:09:12;;;;;;;10.13;6.03;;;;;;;;;;5032977;28;20410;-68
2023/04/10 03:11:38;;;;;;;10.68;6.30;;;;;;;;;;5032949;28;20052;-68
2023/04/10 03:14:05;;;;;;;10.35;6.57;;;;;;;;;;5032561;28;20052;-68
2023/04/10 03:16:32;;;;;;;9.73;6.20;;;;;;;;;;5032139;28;20434;-68
2023/04/10 03:18:58;;;;;;;10.25;5.95;;;;;;;;;;5032420;28;20049;-68
2023/04/10 03:21:26;;;;;;;11.30;6.60;;;;;;;;;;5033160;28;20042;-67
2023/04/10 03:23:52;;;;;;;10.30;6.05;;;;;;;;;;5032594;28;20087;-68
2023/04/10 03:26:22;;;;;;;10.05;5.88;;;;;;;;;;5032509;28;20048;-68
2023/04/10 03:28:49;;;;;;;8.68;5.38;;;;;;;;;;5032277;28;20045;-68
2023/04/10 03:31:16;;;;;;;10.20;6.03;;;;;;;;;;5032683;28;20046;-68
2023/04/10 03:33:43;;;;;;;9.43;6.07;;;;;;;;;;5032072;28;20045;-68
2023/04/10 03:36:10;;;;;;;10.13;5.95;;;;;;;;;;5032215;28;20054;-68
2023/04/10 03:38:37;;;;;;;8.75;5.45;;;;;;;;;;5032085;28;20045;-68
2023/04/10 03:41:04;;;;;;;9.52;6.18;;;;;;;;;;5032745;28;20048;-68
2023/04/10 03:43:32;;;;;;;9.68;6.40;;;;;;;;;;5032567;28;20057;-68
2023/04/10 03:46:00;;;;;;;9.93;6.18;;;;;;;;;;5031957;28;20060;-68
2023/04/10 03:48:29;;;;;;;9.88;6.25;;;;;;;;;;5031796;28;20052;-68
2023/04/10 03:50:55;;;;;;;9.70;5.47;;;;;;;;;;5032030;28;20041;-69
2023/04/10 03:53:22;;;;;;;9.70;5.60;;;;;;;;;;5031944;28;20045;-68
2023/04/10 03:55:51;;;;;;;10.30;6.10;;;;;;;;;;5032121;28;20064;-68
2023/04/10 03:58:17;;;;;;;9.13;5.88;;;;;;;;;;5031795;28;20045;-67
2023/04/10 04:00:45;;;;;;;9.50;5.55;;;;;;;;;;5031871;28;20045;-68
2023/04/10 04:03:12;;;;;;;9.88;5.95;;;;;;;;;;5031733;28;20502;-68
2023/04/10 04:05:38;;;;;;;8.38;5.53;;;;;;;;;;5031530;28;20049;-68
2023/04/10 04:08:05;;;;;;;9.60;5.82;;;;;;;;;;5031787;28;20238;-68
2023/04/10 04:10:32;;;;;;;11.27;6.53;;;;;;;;;;5031411;28;20056;-69
2023/04/10 04:12:58;;;;;;;9.50;5.97;;;;;;;;;;5031741;28;20042;-67
2023/04/10 04:15:25;;;;;;;11.43;6.47;;;;;;;;;;5031351;28;20045;-68
2023/04/10 04:17:53;;;;;;;11.13;6.03;;;;;;;;;;5031710;28;20477;-68
2023/04/10 04:20:19;;;;;;;11.05;6.35;;;;;;;;;;5031635;28;20051;-68
2023/04/10 04:22:46;;;;;;;10.45;6.28;;;;;;;;;;5031966;28;20056;-68
2023/04/10 04:25:13;;;;;;;9.57;5.93;;;;;;;;;;5031465;28;20402;-68
2023/04/10 04:27:40;;;;;;;10.65;6.03;;;;;;;;;;5030982;28;20241;-68
2023/04/10 04:30:08;;;;;;;10.48;6.45;;;;;;;;;;5031827;28;20137;-68
2023/04/10 04:32:34;;;;;;;10.13;6.47;;;;;;;;;;5031145;28;20050;-68
2023/04/10 04:35:02;;;;;;;11.52;6.85;;;;;;;;;;5030884;28;20513;-68
2023/04/10 04:37:29;;;;;;;10.43;6.57;;;;;;;;;;5043030;22;20045;-67
2023/04/10 04:39:56;;;;;;;10.45;6.07;;;;;;;;;;5030876;28;20049;-67
2023/04/10 04:42:22;;;;;;;9.93;5.55;;;;;;;;;;5030950;28;20138;-66
2023/04/10 04:44:49;;;;;;;9.40;5.88;;;;;;;;;;5030570;28;20068;-67
2023/04/10 04:47:16;;;;;;;9.15;6.05;;;;;;;;;;5030685;28;20089;-67
2023/04/10 04:49:43;;;;;;;10.75;6.32;;;;;;;;;;5030825;28;20490;-67
2023/04/10 04:52:11;;;;;;;10.70;6.15;;;;;;;;;;5030484;28;20041;-67
2023/04/10 04:54:37;;;;;;;10.80;6.18;;;;;;;;;;5030925;28;20041;-67
2023/04/10 04:57:04;;;;;;;12.50;5.75;;;;;;;;;;5030244;28;20053;-67
2023/04/10 04:59:31;;;;;;;12.43;7.03;;;;;;;;;;5030634;28;20547;-67
2023/04/10 05:01:58;;;;;;;10.70;6.43;;;;;;;;;;5030925;28;20045;-67
2023/04/10 05:04:24;;;;;;;9.52;5.88;;;;;;;;;;5030244;28;20050;-67
2023/04/10 05:06:51;;;;;;;10.07;6.00;;;;;;;;;;5029845;28;20041;-67
2023/04/10 05:09:19;;;;;;;7.82;5.40;;;;;;;;;;5030801;28;20053;-67
2023/04/10 05:11:45;;;;;;;9.55;5.97;;;;;;;;;;5030214;28;20045;-67
2023/04/10 05:14:12;;;;;;;9.75;5.53;;;;;;;;;;5030420;28;20509;-67
2023/04/10 05:16:38;;;;;;;9.80;5.80;;;;;;;;;;5029945;28;20525;-67
2023/04/10 05:19:05;;;;;;;10.50;6.10;;;;;;;;;;5029825;28;20045;-67
2023/04/10 05:21:32;;;;;;;9.95;5.85;;;;;;;;;;5030190;28;20687;-66
2023/04/10 05:23:58;;;;;;;9.82;6.22;;;;;;;;;;5030208;28;20045;-67
2023/04/10 05:26:26;;;;;;;10.10;6.13;;;;;;;;;;5029679;28;20046;-66
2023/04/10 05:28:53;;;;;;;11.45;6.25;;;;;;;;;;5030129;28;20388;-67
2023/04/10 05:31:19;;;;;;;9.02;5.60;;;;;;;;;;5029791;28;20403;-67
2023/04/10 05:33:46;;;;;;;11.10;6.25;;;;;;;;;;5029885;28;20137;-67
2023/04/10 05:36:13;;;;;;;10.88;5.95;;;;;;;;;;5030148;28;20049;-67
2023/04/10 05:38:39;;;;;;;10.23;5.68;;;;;;;;;;5029420;28;20050;-67
2023/04/10 05:41:06;;;;;;;9.93;5.53;;;;;;;;;;5030245;28;20045;-67
2023/04/10 05:43:34;;;;;;;10.63;5.95;;;;;;;;;;5029693;28;20049;-67
2023/04/10 05:46:01;;;;;;;10.95;5.82;;;;;;;;;;5029832;28;20136;-67
2023/04/10 05:48:27;;;;;;;9.77;5.78;;;;;;;;;;5029640;28;20129;-67
2023/04/10 05:50:54;;;;;;;8.77;5.82;;;;;;;;;;5030116;28;20045;-67
2023/04/10 05:53:24;;;;;;;10.35;5.90;;;;;;;;;;5029728;28;20119;-67
2023/04/10 05:55:51;;;;;;;7.70;5.22;;;;;;;;;;5030212;28;20080;-67
2023/04/10 05:58:17;;;;;;;10.40;5.68;;;;;;;;;;5029402;28;20049;-67
2023/04/10 06:00:45;;;;;;;9.75;6.22;;;;;;;;;;5030123;28;20052;-67
2023/04/10 06:03:12;;;;;;;10.85;6.32;;;;;;;;;;5029489;28;20056;-67
2023/04/10 06:05:40;;;;;;;10.60;6.20;;;;;;;;;;5029576;28;20129;-67
2023/04/10 06:08:06;;;;;;;10.52;6.13;;;;;;;;;;5029358;28;20041;-67
2023/04/10 06:10:33;;;;;;;9.57;5.82;;;;;;;;;;5030158;28;20045;-67
2023/04/10 06:13:00;;;;;;;9.50;5.30;;;;;;;;;;5029434;28;20132;-67
2023/04/10 06:15:26;;;;;;;10.48;6.68;;;;;;;;;;5029571;28;20045;-68
2023/04/10 06:17:54;;;;;;;10.55;6.13;;;;;;;;;;5029361;28;20128;-67
2023/04/10 06:20:21;;;;;;;12.35;7.20;;;;;;;;;;5029543;28;20050;-67
2023/04/10 06:22:48;;;;;;;12.48;6.22;;;;;;;;;;5029562;28;20056;-68
2023/04/10 06:25:15;;;;;;;9.63;6.10;;;;;;;;;;5029473;28;20073;-67
2023/04/10 06:27:41;;;;;;;9.70;5.85;;;;;;;;;;5029022;28;20060;-68
2023/04/10 06:30:10;;;;;;;11.40;6.50;;;;;;;;;;5029197;28;20052;-67
2023/04/10 06:32:36;;;;;;;10.88;6.45;;;;;;;;;;5029672;28;20316;-67
2023/04/10 06:35:05;;;;;;;10.40;6.70;;;;;;;;;;5029039;28;20052;-67
2023/04/10 06:37:32;;;;;;;10.00;6.03;;;;;;;;;;5029367;28;20063;-67
2023/04/10 06:40:06;;;;;;;10.98;6.88;;;;;;;;;;5029721;28;20510;-67
2023/04/10 06:42:43;;;;;;;12.20;7.60;;;;;;;;;;5029949;28;20080;-68
2023/04/10 06:45:10;;;;;;;22.58;13.25;;;;;;;;;;5029213;28;20049;-67
2023/04/10 06:47:37;;;;;;;22.17;12.05;;;;;;;;;;5029212;28;20410;-67
2023/04/10 06:50:06;;;;;;;13.68;9.13;;;;;;;;;;5029173;28;20045;-67
2023/04/10 06:52:32;;;;;;;11.20;7.47;;;;;;;;;;5032889;28;20132;-68
2023/04/10 06:54:59;;;;;;;10.05;6.15;;;;;;;;;;5032575;28;20080;-68
2023/04/10 06:57:27;;;;;;;8.45;6.10;;;;;;;;;;5033252;28;20434;-67
2023/04/10 06:59:54;;;;;;;7.55;5.75;;;;;;;;;;5032671;28;20053;-67
2023/04/10 07:02:20;;;;;;;7.95;5.40;;;;;;;;;;5033255;28;20132;-67
2023/04/10 07:04:47;;;;;;;9.07;5.80;;;;;;;;;;5032558;28;20048;-67
2023/04/10 07:07:15;;;;;;;10.32;5.90;;;;;;;;;;5032970;28;20084;-67
2023/04/10 07:09:42;;;;;;;9.00;6.07;;;;;;;;;;5032930;28;20049;-68
2023/04/10 07:12:09;;;;;;;7.82;5.22;;;;;;;;;;5032816;28;20056;-67
2023/04/10 07:14:35;;;;;;;8.48;5.63;;;;;;;;;;5032693;28;20045;-68
2023/04/10 07:17:02;;;;;;;7.53;5.35;;;;;;;;;;5032536;28;20049;-68
2023/04/10 07:19:29;;;;;;;7.63;5.63;;;;;;;;;;5032344;28;20053;-68
2023/04/10 07:21:56;;;;;;;7.38;5.22;;;;;;;;;;5032712;28;20087;-68
2023/04/10 07:24:24;;;;;;;10.40;6.18;;;;;;;;;;5032214;28;20049;-68
2023/04/10 07:26:51;;;;;;;7.93;5.80;;;;;;;;;;5031748;28;20095;-68
2023/04/10 07:29:18;;;;;;;7.50;5.05;;;;;;;;;;5032476;28;20072;-68
2023/04/10 07:31:44;;;;;;;8.40;4.95;;;;;;;;;;5032083;28;20049;-67
2023/04/10 07:34:11;;;;;;;8.65;5.60;;;;;;;;;;5032107;28;20099;-68
2023/04/10 07:36:38;;;;;;;7.75;5.38;;;;;;;;;;5031886;28;20056;-68
2023/04/10 07:39:05;;;;;;;7.18;4.80;;;;;;;;;;5032411;28;20168;-67
2023/04/10 07:41:34;;;;;;;7.80;5.13;;;;;;;;;;5031945;28;20053;-67
2023/04/10 07:44:00;;;;;;;8.38;5.15;;;;;;;;;;5031779;28;20045;-68
2023/04/10 07:46:27;;;;;;;8.07;5.25;;;;;;;;;;5031629;28;20457;-68
2023/04/10 07:48:55;;;;;;;7.40;5.30;;;;;;;;;;5031397;28;20136;-68
2023/04/10 07:51:21;;;;;;;8.32;5.40;;;;;;;;;;5031783;28;20053;-68
2023/04/10 07:53:48;;;;;;;7.07;4.95;;;;;;;;;;5032170;28;20553;-68
2023/04/10 07:56:16;;;;;;;7.13;4.85;;;;;;;;;;5031875;28;20132;-68
2023/04/10 07:58:44;;;;;;;7.18;5.15;;;;;;;;;;5031750;28;20530;-68
2023/04/10 08:01:11;;;;;;;8.07;5.20;;;;;;;;;;5031584;28;20045;-68
2023/04/10 08:03:39;;;;;;;7.05;4.95;;;;;;;;;;5031446;28;20049;-68
2023/04/10 08:06:08;;;;;;;5.88;4.53;;;;;;;;;;5031626;28;20045;-68
2023/04/10 08:08:36;;;;;;;6.47;4.47;;;;;;;;;;5031603;28;20050;-68
2023/04/10 08:11:03;;;;;;;8.18;4.68;;;;;;;;;;5031583;28;20101;-68
2023/04/10 08:13:30;;;;;;;7.30;4.60;;;;;;;;;;5031527;28;20139;-68
2023/04/10 08:15:58;;;;;;;6.07;4.55;;;;;;;;;;5031298;28;20053;-68
2023/04/10 08:18:25;;;;;;;6.40;4.30;;;;;;;;;;5030927;28;20049;-68
2023/04/10 08:20:51;;;;;;;7.45;4.65;;;;;;;;;;5031587;28;20422;-68
2023/04/10 08:23:18;;;;;;;6.82;4.50;;;;;;;;;;5031257;28;20041;-68
2023/04/10 08:25:45;;;;;;;7.18;4.93;;;;;;;;;;5031435;28;20509;-68
2023/04/10 08:28:12;;;;;;;6.68;5.10;;;;;;;;;;5030598;28;20136;-68
2023/04/10 08:30:38;;;;;;;5.55;4.35;;;;;;;;;;5031531;28;20053;-69
2023/04/10 08:33:06;;;;;;;8.15;4.50;;;;;;;;;;5031065;28;20045;-68
2023/04/10 08:35:33;;;;;;;6.78;5.15;;;;;;;;;;5031352;28;20544;-68
2023/04/10 08:38:00;;;;;;;5.57;4.20;;;;;;;;;;5030700;28;20495;-68
2023/04/10 08:40:27;;;;;;;7.68;4.80;;;;;;;;;;5031402;28;20089;-68
2023/04/10 08:42:53;;;;;;;5.72;3.92;;;;;;;;;;5030766;28;20493;-69
2023/04/10 08:45:20;;;;;;;8.10;4.10;;;;;;;;;;5030685;28;20081;-68
2023/04/10 08:47:50;;;;;;;4.80;3.67;;;;;;;;;;5030407;28;20124;-68
2023/04/10 08:50:19;;;;;;;5.65;4.07;;;;;;;;;;5031043;28;20049;-68
2023/04/10 08:52:46;;;;;;;4.80;3.50;;;;;;;;;;5030611;28;20569;-69
2023/04/10 08:55:14;;;;;;;4.75;3.65;;;;;;;;;;5030586;28;20045;-69
2023/04/10 08:57:41;;;;;;;4.72;3.58;;;;;;;;;;5029992;28;20049;-69
2023/04/10 09:00:09;;;;;;;5.43;3.83;;;;;;;;;;5030706;28;20056;-68
2023/04/10 09:02:38;;;;;;;4.35;3.72;;;;;;;;;;5030735;28;20045;-68
2023/04/10 09:05:06;;;;;;;5.25;3.35;;;;;;;;;;5030247;28;20045;-68
2023/04/10 09:07:34;;;;;;;4.03;3.50;;;;;;;;;;5030325;28;20071;-69
2023/04/10 09:10:01;;;;;;;4.68;3.60;;;;;;;;;;5030250;28;20060;-68
2023/04/10 09:12:28;;;;;;;3.85;3.03;;;;;;;;;;5030509;28;20463;-68
2023/04/10 09:14:56;;;;;;;4.38;3.30;;;;;;;;;;5029943;28;20076;-68
2023/04/10 09:17:24;;;;;;;4.45;2.92;;;;;;;;;;5030311;28;20092;-68
2023/04/10 09:19:54;;;;;;;3.58;3.05;;;;;;;;;;5030050;28;20407;-68
2023/04/10 09:22:30;;;;;;;3.45;2.78;;;;;;;;;;5030653;28;20048;-69
2023/04/10 09:24:59;;;;;;;3.65;2.88;;;;;;;;;;5029704;28;20562;-68
2023/04/10 09:27:31;;;;;;;3.55;3.10;;;;;;;;;;5029732;28;20050;-68
2023/04/10 09:29:58;;;;;;;3.88;3.13;;;;;;;;;;5029921;28;20053;-68
2023/04/10 09:32:37;;;;;;;3.65;2.97;;;;;;;;;;5030239;28;20136;-68
2023/04/10 09:35:10;;;;;;;4.18;3.30;;;;;;;;;;5029543;28;20161;-68
2023/04/10 09:37:38;;;;;;;4.00;3.22;;;;;;;;;;5029751;28;20049;-68
2023/04/10 09:40:19;;;;;;;4.05;3.20;;;;;;;;;;5029798;28;20051;-69
2023/04/10 09:42:45;;;;;;;3.38;2.75;;;;;;;;;;5030382;28;20053;-69
2023/04/10 09:45:12;;;;;;;3.85;2.97;;;;;;;;;;5029586;28;20053;-68
2023/04/10 09:47:38;;;;;;;4.35;2.90;;;;;;;;;;5029394;28;20041;-67
2023/04/10 09:50:06;;;;;;;3.42;2.97;;;;;;;;;;5029694;28;20046;-67
2023/04/10 09:52:34;;;;;;;4.20;3.22;;;;;;;;;;5030151;28;20418;-67
2023/04/10 09:55:02;;;;;;;3.10;2.75;;;;;;;;;;5029519;28;20629;-68
2023/04/10 09:57:33;;;;;;;3.13;2.83;;;;;;;;;;5029751;28;20426;-67
2023/04/10 10:00:01;;;;;;;3.67;3.22;;;;;;;;;;5029598;28;20045;-68
2023/04/10 10:02:30;;;;;;;3.13;2.58;;;;;;;;;;5030036;28;20862;-67
2023/04/10 10:04:59;;;;;;;3.03;2.50;;;;;;;;;;5029488;28;20042;-68
2023/04/10 10:07:26;;;;;;;3.22;2.70;;;;;;;;;;5029738;28;20519;-68
2023/04/10 10:09:53;;;;;;;3.50;2.75;;;;;;;;;;5029393;28;20045;-68
2023/04/10 10:12:24;;;;;;;3.05;2.40;;;;;;;;;;5030052;28;20092;-67
2023/04/10 10:14:57;;;;;;;3.92;2.85;;;;;;;;;;5029384;28;20560;-67
2023/04/10 10:17:30;;;;;;;3.47;2.85;;;;;;;;;;5029914;28;20053;-67
2023/04/10 10:20:02;;;;;;;3.10;2.78;;;;;;;;;;5030080;28;20045;-68
2023/04/10 10:22:29;;;;;;;3.45;2.55;;;;;;;;;;5029833;28;20053;-67
2023/04/10 10:24:57;;;;;;;3.10;2.75;;;;;;;;;;5029623;28;20495;-67
2023/04/10 10:27:26;;;;;;;2.33;2.13;;;;;;;;;;5032233;28;20521;-68
2023/04/10 10:29:54;;;;;;;2.83;2.53;;;;;;;;;;5033598;28;20067;-68
2023/04/10 10:32:21;;;;;;;2.35;2.15;;;;;;;;;;5033307;28;20049;-68
2023/04/10 10:34:52;;;;;;;4.10;2.45;;;;;;;;;;5033123;28;20515;-68
2023/04/10 10:37:19;;;;;;;2.65;2.13;;;;;;;;;;5044930;22;20068;-69
2023/04/10 10:39:53;;;;;;;3.30;2.50;;;;;;;;;;5032885;28;20128;-68
2023/04/10 10:42:26;;;;;;;2.72;2.25;;;;;;;;;;5033162;28;20046;-69
2023/04/10 10:45:01;;;;;;;2.42;2.15;;;;;;;;;;5033147;28;20061;-68
2023/04/10 10:47:29;;;;;;;3.10;2.40;;;;;;;;;;5032497;28;20073;-69
2023/04/10 10:49:58;;;;;;;3.65;2.10;;;;;;;;;;5033464;28;20410;-69
2023/04/10 10:52:43;;;;;;;2.50;2.10;;;;;;;;;;5032451;28;20052;-69
2023/04/10 10:55:35;;;;;;;2.97;2.40;;;;;;;;;;5033434;28;20049;-68
2023/04/10 10:58:06;;;;;;;2.25;1.92;;;;;;;;;;5032369;28;20049;-68
2023/04/10 11:01:06;;;;;;;2.30;2.10;;;;;;;;;;5033182;28;20076;-69
2023/04/10 11:03:33;;;;;;;3.60;2.45;;;;;;;;;;5032468;28;20050;-66
2023/04/10 11:06:01;;;;;;;2.53;2.15;;;;;;;;;;5033159;28;20049;-66
2023/04/10 11:08:43;;;;;;;2.78;2.20;;;;;;;;;;5032013;28;20046;-66
2023/04/10 11:11:14;;;;;;;2.83;2.53;;;;;;;;;;5032620;28;20045;-66
2023/04/10 11:13:42;;;;;;;2.90;2.40;;;;;;;;;;5032446;28;20136;-66
2023/04/10 11:16:10;;;;;;;2.55;2.15;;;;;;;;;;5033038;28;20049;-66
2023/04/10 11:19:03;;;;;;;2.90;2.45;;;;;;;;;;5032047;28;20465;-67
2023/04/10 11:21:30;;;;;;;3.60;2.60;;;;;;;;;;5032582;28;20052;-66
2023/04/10 11:24:04;;;;;;;2.80;2.47;;;;;;;;;;5032281;28;20088;-67
2023/04/10 11:26:39;;;;;;;3.08;2.78;;;;;;;;;;5033073;28;20407;-66
2023/04/10 11:29:27;;;;;;;2.90;2.58;;;;;;;;;;5031824;28;20065;-67
2023/04/10 11:31:57;;;;;;;2.90;2.42;;;;;;;;;;5032082;28;20053;-67
2023/04/10 11:34:26;;;;;;;3.25;2.63;;;;;;;;;;5032145;28;20042;-66
2023/04/10 11:36:53;;;;;;;3.25;2.33;;;;;;;;;;5031182;28;20041;-67
2023/04/10 11:39:21;;;;;;;3.05;2.70;;;;;;;;;;5032090;28;20049;-67
2023/04/10 11:41:48;;;;;;;2.75;2.42;;;;;;;;;;5032055;28;20052;-67
2023/04/10 11:44:19;;;;;;;3.20;2.60;;;;;;;;;;5031539;28;20045;-67
2023/04/10 11:46:47;;;;;;;3.22;2.60;;;;;;;;;;5032090;28;20055;-67
2023/04/10 11:49:18;;;;;;;4.00;2.80;;;;;;;;;;5031474;28;20056;-67
2023/04/10 11:51:46;;;;;;;2.90;2.50;;;;;;;;;;5032104;28;20080;-67
2023/04/10 11:54:14;;;;;;;2.65;2.45;;;;;;;;;;5031563;28;20275;-66
2023/04/10 11:56:41;;;;;;;3.00;2.70;;;;;;;;;;5031769;28;20052;-67
2023/04/10 11:59:09;;;;;;;3.15;2.85;;;;;;;;;;5031017;28;20053;-67
2023/04/10 12:01:36;;;;;;;2.90;2.42;;;;;;;;;;5031852;28;20414;-68
2023/04/10 12:04:02;;;;;;;3.92;2.50;;;;;;;;;;5031375;28;20415;-67
2023/04/10 12:06:31;;;;;;;2.92;2.30;;;;;;;;;;5031797;28;20049;-67
2023/04/10 12:08:58;;;;;;;3.85;2.60;;;;;;;;;;5026290;28;20175;-67
2023/04/10 12:11:25;;;;;;;3.22;2.42;;;;;;;;;;5030720;28;20069;-67
2023/04/10 12:13:53;;;;;;;2.70;2.50;;;;;;;;;;5021948;28;20049;-67
2023/04/10 12:16:20;;;;;;;2.85;2.60;;;;;;;;;;5026520;28;20483;-67
2023/04/10 12:18:47;;;;;;;2.88;2.58;;;;;;;;;;5030222;28;20134;-67
2023/04/10 12:21:14;;;;;;;2.60;2.40;;;;;;;;;;5029753;28;20392;-67
2023/04/10 12:23:42;;;;;;;2.88;2.47;;;;;;;;;;5027008;28;20081;-67
2023/04/10 12:26:11;;;;;;;2.72;2.20;;;;;;;;;;5029557;28;20048;-67
2023/04/10 12:28:40;;;;;;;2.80;2.40;;;;;;;;;;5030706;28;20433;-67
2023/04/10 12:31:07;;;;;;;3.00;2.47;;;;;;;;;;5031017;28;20494;-67
2023/04/10 12:33:34;;;;;;;2.45;2.25;;;;;;;;;;5027405;28;20054;-67
2023/04/10 12:36:00;;;;;;;4.10;2.60;;;;;;;;;;5029558;28;20475;-67
2023/04/10 12:38:41;;;;;;;3.33;2.70;;;;;;;;;;5029754;28;20049;-67
2023/04/10 12:41:10;;;;;;;2.72;2.53;;;;;;;;;;5030774;28;20407;-67
2023/04/10 12:43:38;;;;;;;2.38;2.03;;;;;;;;;;5028787;28;20137;-67
2023/04/10 12:46:07;;;;;;;2.97;2.53;;;;;;;;;;5028817;28;20308;-67
2023/04/10 12:48:34;;;;;;;3.90;2.60;;;;;;;;;;5027739;28;20041;-67
2023/04/10 12:51:01;;;;;;;2.55;2.35;;;;;;;;;;5030169;28;20503;-67
2023/04/10 12:53:28;;;;;;;3.08;2.70;;;;;;;;;;5028773;28;20048;-67
2023/04/10 12:56:03;;;;;;;2.53;2.28;;;;;;;;;;5030119;28;20041;-67
2023/04/10 12:58:32;;;;;;;2.75;2.33;;;;;;;;;;5029244;28;20115;-67
2023/04/10 13:01:03;;;;;;;2.60;2.40;;;;;;;;;;5030055;28;20041;-67
2023/04/10 13:03:29;;;;;;;2.70;2.47;;;;;;;;;;5028847;28;20045;-67
2023/04/10 13:05:56;;;;;;;2.47;2.20;;;;;;;;;;5029880;28;20041;-67
2023/04/10 13:08:23;;;;;;;3.08;2.60;;;;;;;;;;5029354;28;20422;-67
2023/04/10 13:10:49;;;;;;;3.13;2.70;;;;;;;;;;5029270;28;20045;-67
2023/04/10 13:13:17;;;;;;;2.30;2.10;;;;;;;;;;5028800;28;20730;-67
2023/04/10 13:15:45;;;;;;;2.72;2.38;;;;;;;;;;5029752;28;20050;-67
2023/04/10 13:18:11;;;;;;;2.60;2.40;;;;;;;;;;5027477;28;20045;-67
2023/04/10 13:20:39;;;;;;;2.60;2.40;;;;;;;;;;5028639;28;20051;-67
2023/04/10 13:23:06;;;;;;;2.40;2.15;;;;;;;;;;5029156;28;20053;-67
2023/04/10 13:25:36;;;;;;;2.03;1.83;;;;;;;;;;5028517;28;20103;-67
2023/04/10 13:28:08;;;;;;;2.70;2.08;;;;;;;;;;5021276;28;20474;-67
2023/04/10 13:30:35;;;;;;;;;;;;;;;;;;5027552;28;20104;-67
2023/04/10 13:33:03;;;;;;;3.00;2.40;;;;;;;;;;5030574;28;20283;-67
2023/04/10 13:35:30;;;;;;;2.03;1.90;;;;;;;;;;5029553;28;20057;-67
2023/04/10 13:37:56;;;;;;;2.72;2.30;;;;;;;;;;5028706;28;20065;-67
2023/04/10 13:40:23;;;;;;;2.92;2.25;;;;;;;;;;5024905;28;20042;-67
2023/04/10 13:42:49;;;;;;;2.50;2.20;;;;;;;;;;5029510;28;20054;-67
2023/04/10 13:45:16;;;;;;;2.42;2.13;;;;;;;;;;5028055;28;20053;-67
2023/04/10 13:47:43;;;;;;;2.22;1.98;;;;;;;;;;5027537;28;20616;-67
2023/04/10 13:50:11;;;;;;;2.45;2.20;;;;;;;;;;5031954;28;20480;-67
2023/04/10 13:52:39;;;;;;;3.13;2.22;;;;;;;;;;5032587;28;20048;-68
2023/04/10 13:55:07;;;;;;;2.95;2.15;;;;;;;;;;5034150;28;20042;-67
2023/04/10 13:57:34;;;;;;;2.15;1.95;;;;;;;;;;5028131;28;20392;-68
2023/04/10 14:00:00;;;;;;;3.17;1.75;;;;;;;;;;5030453;28;20084;-68
2023/04/10 14:02:27;;;;;;;1.77;1.67;;;;;;;;;;5034480;28;20037;-68
2023/04/10 14:04:54;;;;;;;2.20;2.00;;;;;;;;;;5032692;28;20063;-67
2023/04/10 14:07:22;;;;;;;2.13;1.92;;;;;;;;;;5033338;28;20046;-68
2023/04/10 14:09:48;;;;;;;3.53;3.03;;;;;;;;;;5022022;28;20575;-68
2023/04/10 14:12:16;;;;;;;2.20;2.00;;;;;;;;;;5021340;28;20049;-68
2023/04/10 14:14:43;;;;;;;2.13;1.95;;;;;;;;;;5031619;28;20050;-67
2023/04/10 14:17:14;;;;;;;2.03;1.83;;;;;;;;;;5032581;28;20103;-68
2023/04/10 14:19:42;;;;;;;2.10;1.90;;;;;;;;;;5039829;28;20045;-68
2023/04/10 14:22:08;;;;;;;1.98;1.77;;;;;;;;;;5034027;28;20394;-67
2023/04/10 14:24:36;;;;;;;3.97;1.95;;;;;;;;;;5033594;28;20041;-68
2023/04/10 14:27:03;;;;;;;1.98;1.85;;;;;;;;;;5033093;28;20041;-68
2023/04/10 14:29:29;;;;;;;2.10;1.90;;;;;;;;;;5033782;28;20046;-67
2023/04/10 14:31:58;;;;;;;2.10;1.90;;;;;;;;;;5034006;28;20045;-68
2023/04/10 14:34:25;;;;;;;2.88;1.83;;;;;;;;;;5033518;28;20055;-67
2023/04/10 14:36:54;;;;;;;1.92;1.73;;;;;;;;;;5032950;28;20052;-68
2023/04/10 14:39:22;;;;;;;2.47;1.85;;;;;;;;;;5033811;28;20049;-68
2023/04/10 14:41:50;;;;;;;2.22;1.70;;;;;;;;;;5033446;28;20046;-67
2023/04/10 14:44:17;;;;;;;2.10;1.88;;;;;;;;;;5033312;28;20054;-67
2023/04/10 14:46:44;;;;;;;2.03;1.83;;;;;;;;;;5033199;28;20552;-67